createdAt,value
2023-04-16T00:02:04.280Z,4.00
2023-04-16T00:04:34.580Z,4.23
2023-04-16T00:07:05.922Z,4.93
2023-04-16T00:09:35.359Z,3.90
2023-04-16T00:12:04.514Z,4.13
2023-04-16T00:14:34.984Z,3.73
2023-04-16T00:17:04.502Z,4.97
2023-04-16T00:19:34.452Z,3.43
2023-04-16T00:22:06.365Z,3.50
2023-04-16T00:24:35.963Z,2.90
2023-04-16T00:27:05.204Z,2.77
2023-04-16T00:29:35.614Z,2.33
2023-04-16T00:32:04.698Z,2.33
2023-04-16T00:34:34.051Z,2.60
2023-04-16T00:37:04.204Z,2.33
2023-04-16T00:39:35.808Z,2.00
2023-04-16T00:42:05.890Z,2.40
2023-04-16T00:44:36.258Z,1.50
2023-04-16T00:47:07.815Z,2.17
2023-04-16T00:49:37.978Z,2.00
2023-04-16T00:52:07.099Z,2.43
2023-04-16T00:54:39.097Z,2.00
2023-04-16T00:57:08.647Z,2.30
2023-04-16T00:59:38.725Z,2.83
2023-04-16T01:02:09.244Z,2.40
2023-04-16T01:04:38.324Z,2.43
2023-04-16T01:07:08.574Z,2.47
2023-04-16T01:09:39.295Z,2.90
2023-04-16T01:12:09.406Z,4.17
2023-04-16T01:14:38.560Z,11.10
2023-04-16T01:17:09.514Z,4.90
2023-04-16T01:19:38.716Z,3.87
2023-04-16T01:22:11.266Z,2.70
2023-04-16T01:24:40.919Z,3.73
2023-04-16T01:27:13.617Z,3.17
2023-04-16T01:29:43.304Z,3.53
2023-04-16T01:32:12.927Z,2.20
2023-04-16T01:34:44.627Z,2.93
2023-04-16T01:37:15.951Z,2.13
2023-04-16T01:39:46.250Z,1.77
2023-04-16T01:42:15.459Z,1.93
2023-04-16T01:44:46.739Z,2.10
2023-04-16T01:47:17.617Z,2.20
2023-04-16T01:49:48.373Z,3.00
2023-04-16T01:52:20.225Z,2.90
2023-04-16T01:54:50.664Z,2.70
2023-04-16T01:57:19.797Z,2.37
2023-04-16T01:59:50.525Z,3.40
2023-04-16T02:02:19.816Z,2.90
2023-04-16T02:04:50.159Z,2.50
2023-04-16T02:07:21.904Z,2.30
2023-04-16T02:09:51.635Z,2.30
2023-04-16T02:12:20.633Z,2.07
2023-04-16T02:14:50.675Z,2.60
2023-04-16T02:17:20.918Z,2.33
2023-04-16T02:19:55.108Z,2.30
2023-04-16T02:22:26.249Z,2.10
2023-04-16T02:24:56.449Z,2.87
2023-04-16T02:27:25.435Z,3.13
2023-04-16T02:30:01.036Z,2.27
2023-04-16T02:32:33.124Z,2.63
2023-04-16T02:35:04.298Z,3.23
2023-04-16T02:37:35.152Z,2.90
2023-04-16T02:40:05.087Z,2.20
2023-04-16T02:42:35.515Z,2.00
2023-04-16T02:45:06.597Z,1.80
2023-04-16T02:47:38.011Z,1.60
2023-04-16T02:50:08.562Z,1.97
2023-04-16T02:52:39.838Z,1.83
2023-04-16T02:55:09.721Z,1.53
2023-04-16T02:57:39.028Z,1.80
2023-04-16T03:00:10.478Z,1.60
2023-04-16T03:02:40.418Z,1.50
2023-04-16T03:05:11.908Z,1.70
2023-04-16T03:07:43.529Z,1.70
2023-04-16T03:10:14.072Z,1.60
2023-04-16T03:12:43.182Z,1.83
2023-04-16T03:15:13.781Z,1.47
2023-04-16T03:17:43.032Z,1.60
2023-04-16T03:20:13.278Z,1.83
2023-04-16T03:22:44.530Z,0.80
2023-04-16T03:25:15.213Z,1.13
2023-04-16T03:27:45.268Z,1.30
2023-04-16T03:30:16.203Z,1.00
2023-04-16T03:32:46.316Z,0.80
2023-04-16T03:35:15.978Z,0.90
2023-04-16T03:37:47.494Z,1.47
2023-04-16T03:40:18.052Z,1.90
2023-04-16T03:42:47.270Z,1.30
2023-04-16T03:45:18.709Z,1.63
2023-04-16T03:47:52.856Z,1.60
2023-04-16T03:50:26.336Z,1.60
2023-04-16T03:52:57.719Z,1.67
2023-04-16T03:55:28.769Z,1.30
2023-04-16T03:58:03.181Z,1.60
2023-04-16T04:00:34.639Z,1.63
2023-04-16T04:03:13.423Z,1.77
2023-04-16T04:05:43.113Z,1.63
2023-04-16T04:08:17.617Z,1.23
2023-04-16T04:10:48.227Z,1.30
2023-04-16T04:13:17.785Z,1.37
2023-04-16T04:15:47.902Z,1.60
2023-04-16T04:18:17.344Z,1.43
2023-04-16T04:20:47.045Z,1.30
2023-04-16T04:23:20.745Z,1.40
2023-04-16T04:25:50.796Z,1.30
2023-04-16T04:28:20.113Z,1.40
2023-04-16T04:30:50.089Z,1.33
2023-04-16T04:33:20.372Z,1.20
2023-04-16T04:35:50.848Z,1.20
2023-04-16T04:38:22.562Z,1.40
2023-04-16T04:40:53.763Z,1.53
2023-04-16T04:43:25.734Z,1.27
2023-04-16T04:45:57.143Z,1.10
2023-04-16T04:48:29.572Z,1.60
2023-04-16T04:50:59.759Z,1.40
2023-04-16T04:53:30.683Z,1.37
2023-04-16T04:56:11.136Z,1.50
2023-04-16T04:58:41.588Z,1.10
2023-04-16T05:04:06.622Z,1.80
2023-04-16T05:06:36.500Z,1.20
2023-04-16T05:09:11.661Z,1.40
2023-04-16T05:11:42.221Z,1.60
2023-04-16T05:14:11.561Z,1.20
2023-04-16T05:16:41.092Z,1.37
2023-04-16T05:19:10.543Z,1.00
2023-04-16T05:21:40.240Z,1.33
2023-04-16T05:24:12.069Z,1.37
2023-04-16T05:26:44.376Z,1.20
2023-04-16T05:29:13.922Z,1.40
2023-04-16T05:31:43.629Z,1.27
2023-04-16T05:34:13.493Z,1.30
2023-04-16T05:36:42.950Z,1.40
2023-04-16T05:39:13.599Z,1.20
2023-04-16T05:41:43.819Z,1.47
2023-04-16T05:44:12.841Z,1.30
2023-04-16T05:46:43.378Z,1.30
2023-04-16T05:49:13.449Z,1.17
2023-04-16T05:51:42.828Z,1.33
2023-04-16T05:54:13.299Z,1.50
2023-04-16T05:56:44.091Z,1.40
2023-04-16T05:59:13.165Z,2.00
2023-04-16T06:01:43.300Z,1.50
2023-04-16T06:04:13.371Z,1.40
2023-04-16T06:06:43.035Z,1.90
2023-04-16T06:09:14.823Z,1.60
2023-04-16T06:11:44.603Z,1.57
2023-04-16T06:14:13.744Z,1.67
2023-04-16T06:16:44.586Z,1.80
2023-04-16T06:19:13.684Z,1.97
2023-04-16T06:21:43.700Z,1.80
2023-04-16T06:24:16.048Z,1.60
2023-04-16T06:26:46.045Z,1.90
2023-04-16T06:29:16.531Z,1.70
2023-04-16T06:31:47.031Z,2.13
2023-04-16T06:34:16.147Z,1.50
2023-04-16T06:36:46.624Z,1.80
2023-04-16T06:39:17.262Z,2.00
2023-04-16T06:41:48.146Z,1.70
2023-04-16T06:44:17.478Z,1.20
2023-04-16T06:46:47.364Z,1.50
2023-04-16T07:03:22.355Z,1.73
2023-04-16T07:05:53.491Z,1.63
2023-04-16T07:08:25.736Z,1.67
2023-04-16T07:10:55.639Z,1.30
2023-04-16T07:13:26.914Z,1.90
2023-04-16T07:15:56.543Z,1.40
2023-04-16T07:18:25.691Z,1.60
2023-04-16T07:20:56.013Z,1.50
2023-04-16T07:23:25.755Z,1.30
2023-04-16T07:25:54.949Z,1.37
2023-04-16T07:28:27.035Z,1.20
2023-04-16T07:30:56.922Z,1.33
2023-04-16T07:33:27.749Z,1.40
2023-04-16T07:35:57.141Z,1.53
2023-04-16T07:38:26.326Z,1.77
2023-04-16T07:40:58.027Z,2.33
2023-04-16T07:43:29.026Z,1.40
2023-04-16T07:45:59.203Z,1.43
2023-04-16T07:48:28.355Z,2.20
2023-04-16T07:50:58.505Z,1.80
2023-04-16T07:53:27.812Z,1.63
2023-04-16T07:55:57.193Z,2.10
2023-04-16T07:58:26.282Z,1.47
2023-04-16T08:03:52.208Z,1.00
2023-04-16T08:06:23.378Z,1.60
2023-04-16T08:08:53.521Z,1.80
2023-04-16T08:11:22.653Z,1.50
2023-04-16T08:13:53.697Z,1.57
2023-04-16T08:16:24.375Z,1.37
2023-04-16T08:18:53.847Z,1.30
2023-04-16T08:21:23.126Z,1.60
2023-04-16T08:23:52.851Z,1.50
2023-04-16T08:26:21.885Z,1.90
2023-04-16T08:28:52.514Z,1.83
2023-04-16T08:31:21.996Z,1.60
2023-04-16T08:33:52.974Z,1.40
2023-04-16T08:36:23.281Z,1.43
2023-04-16T08:38:52.951Z,1.47
2023-04-16T08:41:24.616Z,1.23
2023-04-16T08:43:55.751Z,1.50
2023-04-16T08:46:28.078Z,1.20
2023-04-16T08:49:00.375Z,1.50
2023-04-16T08:51:33.062Z,1.33
2023-04-16T08:54:04.864Z,1.40
2023-04-16T08:56:39.838Z,1.50
2023-04-16T08:59:11.619Z,1.67
2023-04-16T09:01:42.105Z,2.20
2023-04-16T09:04:13.909Z,1.47
2023-04-16T09:06:44.451Z,1.43
2023-04-16T09:09:16.191Z,2.57
2023-04-16T09:11:45.905Z,2.10
2023-04-16T09:14:15.289Z,2.23
2023-04-16T09:16:45.641Z,2.20
2023-04-16T09:19:16.268Z,2.23
2023-04-16T09:21:48.787Z,2.03
2023-04-16T09:24:18.434Z,2.30
2023-04-16T09:26:47.840Z,2.50
2023-04-16T09:29:36.772Z,2.60
2023-04-16T09:32:06.707Z,2.40
2023-04-16T09:34:38.566Z,3.47
2023-04-16T09:37:17.204Z,2.10
2023-04-16T09:39:48.143Z,3.20
2023-04-16T09:42:17.463Z,2.53
2023-04-16T09:44:47.060Z,1.90
2023-04-16T09:47:17.914Z,2.50
2023-04-16T09:49:48.882Z,2.23
2023-04-16T09:52:18.917Z,2.17
2023-04-16T09:54:49.287Z,2.87
2023-04-16T09:57:23.368Z,1.93
2023-04-16T09:59:57.497Z,3.80
2023-04-16T10:02:29.175Z,2.43
2023-04-16T10:05:00.240Z,2.50
2023-04-16T10:07:31.319Z,2.60
2023-04-16T10:10:01.765Z,1.93
2023-04-16T10:12:33.007Z,1.67
2023-04-16T10:15:03.174Z,3.53
2023-04-16T10:17:33.913Z,1.80
2023-04-16T10:20:06.476Z,1.97
2023-04-16T10:22:36.831Z,2.00
2023-04-16T10:25:06.343Z,1.80
2023-04-16T10:27:36.805Z,1.83
2023-04-16T10:30:06.282Z,2.30
2023-04-16T10:32:36.558Z,2.07
2023-04-16T10:35:07.754Z,2.70
2023-04-16T10:37:39.713Z,1.63
2023-04-16T10:40:24.485Z,1.77
2023-04-16T10:42:57.874Z,2.10
2023-04-16T10:45:34.227Z,1.77
2023-04-16T10:48:06.614Z,1.97
2023-04-16T10:50:39.130Z,2.10
2023-04-16T10:53:22.488Z,2.23
2023-04-16T10:56:13.291Z,3.10
2023-04-16T10:58:42.880Z,2.50
2023-04-16T11:01:17.662Z,2.20
2023-04-16T11:03:49.508Z,2.50
2023-04-16T11:06:27.807Z,3.17
2023-04-16T11:08:58.423Z,2.83
2023-04-16T11:11:27.749Z,2.70
2023-04-16T11:13:58.254Z,2.30
2023-04-16T11:16:28.768Z,2.73
2023-04-16T11:18:58.553Z,2.93
2023-04-16T11:21:30.175Z,2.97
2023-04-16T11:24:00.527Z,3.00
2023-04-16T11:26:31.609Z,2.60
2023-04-16T11:29:01.513Z,2.90
2023-04-16T11:31:30.666Z,4.13
2023-04-16T11:34:01.356Z,4.70
2023-04-16T11:36:44.612Z,3.10
2023-04-16T11:39:15.588Z,4.37
2023-04-16T11:41:45.275Z,3.63
2023-04-16T11:44:23.040Z,4.57
2023-04-16T11:46:53.465Z,4.20
2023-04-16T11:49:29.818Z,6.33
2023-04-16T11:52:01.755Z,5.40
2023-04-16T11:54:35.886Z,3.90
2023-04-16T11:57:05.784Z,3.90
2023-04-16T11:59:34.901Z,4.20
2023-04-16T12:02:04.980Z,3.23
2023-04-16T12:04:35.805Z,3.50
2023-04-16T12:07:11.782Z,3.60
2023-04-16T12:09:43.001Z,3.43
2023-04-16T12:12:31.635Z,3.60
2023-04-16T12:15:04.012Z,5.03
2023-04-16T12:17:36.076Z,3.30
2023-04-16T12:20:06.891Z,5.03
2023-04-16T12:22:39.102Z,3.90
2023-04-16T12:25:09.512Z,3.57
2023-04-16T12:27:46.962Z,3.73
2023-04-16T12:30:17.458Z,3.20
2023-04-16T12:32:47.943Z,3.80
2023-04-16T12:35:31.721Z,3.27
2023-04-16T12:38:04.857Z,4.83
2023-04-16T12:40:34.364Z,5.00
2023-04-16T12:43:03.356Z,3.20
2023-04-16T12:45:33.024Z,3.90
2023-04-16T12:48:02.359Z,3.77
2023-04-16T12:50:32.655Z,3.20
2023-04-16T12:53:04.025Z,4.33
2023-04-16T12:55:33.681Z,3.60
2023-04-16T12:58:03.143Z,3.27
2023-04-16T13:00:34.128Z,3.30
2023-04-16T13:03:03.841Z,2.80
2023-04-16T13:05:34.394Z,2.83
2023-04-16T13:08:05.186Z,2.80
2023-04-16T13:10:35.954Z,3.93
2023-04-16T13:13:07.128Z,4.07
2023-04-16T13:15:37.127Z,3.40
2023-04-16T13:18:06.645Z,3.00
2023-04-16T13:20:37.144Z,2.60
2023-04-16T13:23:07.659Z,2.40
2023-04-16T13:25:37.546Z,3.83
2023-04-16T13:28:06.724Z,2.27
2023-04-16T13:30:36.952Z,2.13
2023-04-16T13:33:07.156Z,2.20
2023-04-16T13:35:37.092Z,2.20
2023-04-16T13:38:08.802Z,3.53
2023-04-16T13:40:38.254Z,2.90
2023-04-16T13:43:07.891Z,2.63
2023-04-16T13:45:37.854Z,2.90
2023-04-16T13:48:07.472Z,2.20
2023-04-16T13:50:36.922Z,2.40
2023-04-16T13:53:06.687Z,2.70
2023-04-16T13:55:37.661Z,2.53
2023-04-16T13:58:07.771Z,2.63
2023-04-16T14:00:37.280Z,1.93
2023-04-16T14:03:07.037Z,1.70
2023-04-16T14:05:37.283Z,2.07
2023-04-16T14:08:06.735Z,2.07
2023-04-16T14:10:38.555Z,1.90
2023-04-16T14:13:08.801Z,2.33
2023-04-16T14:15:38.069Z,2.40
2023-04-16T14:18:07.983Z,2.00
2023-04-16T14:20:40.102Z,2.33
2023-04-16T14:23:11.116Z,1.60
2023-04-16T14:25:42.749Z,2.47
2023-04-16T14:28:15.450Z,2.23
2023-04-16T14:30:45.822Z,1.60
2023-04-16T14:33:15.555Z,2.10
2023-04-16T14:35:45.246Z,1.97
2023-04-16T14:38:14.347Z,1.57
2023-04-16T14:40:45.625Z,2.43
2023-04-16T14:43:15.109Z,2.10
2023-04-16T14:45:44.448Z,2.17
2023-04-16T14:48:15.093Z,2.20
2023-04-16T14:50:44.841Z,1.90
2023-04-16T14:53:14.309Z,1.93
2023-04-16T14:55:45.915Z,2.40
2023-04-16T14:58:15.199Z,3.00
2023-04-16T15:00:44.401Z,3.70
2023-04-16T15:03:14.723Z,2.23
2023-04-16T15:05:44.710Z,4.83
2023-04-16T15:08:14.388Z,3.23
2023-04-16T15:10:46.657Z,2.50
2023-04-16T15:13:18.376Z,1.50
2023-04-16T15:15:49.439Z,1.97
2023-04-16T15:18:18.576Z,1.70
2023-04-16T15:20:48.251Z,2.60
2023-04-16T15:23:17.488Z,2.20
2023-04-16T15:25:46.949Z,1.80
2023-04-16T15:28:16.306Z,3.03
2023-04-16T15:30:48.612Z,2.90
2023-04-16T15:33:18.545Z,2.10
2023-04-16T15:35:47.815Z,1.90
2023-04-16T15:38:18.288Z,2.20
2023-04-16T15:40:48.144Z,2.50
2023-04-16T15:43:19.028Z,2.00
2023-04-16T15:45:50.246Z,2.10
2023-04-16T15:48:20.714Z,2.10
2023-04-16T15:50:49.852Z,2.50
2023-04-16T15:53:19.849Z,2.27
2023-04-16T15:55:50.820Z,2.37
2023-04-16T15:58:21.030Z,1.80
2023-04-16T16:00:53.336Z,2.30
2023-04-16T16:03:23.645Z,1.90
2023-04-16T16:05:53.124Z,2.47
2023-04-16T16:08:23.896Z,2.30
2023-04-16T16:10:53.039Z,2.20
2023-04-16T16:13:22.479Z,2.10
2023-04-16T16:15:54.346Z,2.47
2023-04-16T16:18:24.706Z,2.20
2023-04-16T16:20:58.407Z,2.43
2023-04-16T16:23:28.551Z,2.20
2023-04-16T16:25:57.881Z,5.67
2023-04-16T16:28:29.027Z,3.40
2023-04-16T16:31:01.678Z,4.70
2023-04-16T16:33:32.168Z,1.93
2023-04-16T16:36:01.953Z,1.70
2023-04-16T16:38:31.614Z,1.93
2023-04-16T16:41:02.122Z,1.80
2023-04-16T16:43:32.225Z,2.13
2023-04-16T16:46:03.098Z,5.50
2023-04-16T16:48:32.770Z,1.67
2023-04-16T16:51:01.980Z,1.30
2023-04-16T16:53:31.979Z,1.73
2023-04-16T16:56:01.370Z,1.93
2023-04-16T16:58:30.952Z,1.53
2023-04-16T17:01:05.626Z,1.77
2023-04-16T17:03:37.698Z,1.90
2023-04-16T17:06:07.990Z,1.90
2023-04-16T17:08:37.194Z,1.50
2023-04-16T17:11:07.562Z,1.40
2023-04-16T17:13:38.211Z,1.77
2023-04-16T17:16:08.627Z,2.13
2023-04-16T17:18:40.739Z,2.37
2023-04-16T17:21:10.922Z,2.27
2023-04-16T17:23:41.212Z,2.00
2023-04-16T17:26:11.154Z,1.80
2023-04-16T17:28:40.351Z,1.87
2023-04-16T17:31:11.852Z,1.30
2023-04-16T17:33:42.504Z,1.83
2023-04-16T17:36:12.756Z,2.47
2023-04-16T17:38:44.709Z,2.40
2023-04-16T17:41:14.544Z,1.90
2023-04-16T17:43:43.921Z,1.70
2023-04-16T17:46:14.329Z,1.80
2023-04-16T17:48:46.454Z,2.30
2023-04-16T17:51:16.753Z,1.90
2023-04-16T17:53:46.108Z,2.40
2023-04-16T17:56:17.002Z,3.30
2023-04-16T17:58:46.697Z,3.50
2023-04-16T18:01:42.109Z,2.93
2023-04-16T18:04:13.866Z,4.67
2023-04-16T18:06:44.099Z,4.80
2023-04-16T18:09:14.518Z,4.43
2023-04-16T18:11:45.950Z,3.20
2023-04-16T18:14:20.081Z,4.70
2023-04-16T18:16:50.995Z,3.20
2023-04-16T18:19:23.245Z,2.50
2023-04-16T18:21:54.455Z,1.70
2023-04-16T18:24:23.657Z,1.80
2023-04-16T18:26:55.113Z,1.70
2023-04-16T18:29:26.461Z,2.33
2023-04-16T18:31:56.218Z,3.67
2023-04-16T18:34:30.555Z,2.47
2023-04-16T18:37:00.868Z,2.20
2023-04-16T18:39:31.801Z,2.20
2023-04-16T18:42:01.735Z,2.50
2023-04-16T18:44:31.019Z,2.70
2023-04-16T18:47:01.544Z,4.07
2023-04-16T18:49:32.118Z,2.77
2023-04-16T18:52:03.313Z,2.40
2023-04-16T18:54:32.768Z,2.70
2023-04-16T18:57:02.933Z,4.87
2023-04-16T18:59:33.112Z,3.60
2023-04-16T19:02:04.183Z,3.10
2023-04-16T19:04:35.073Z,0.80
2023-04-16T19:07:05.836Z,2.70
2023-04-16T19:09:35.078Z,3.20
2023-04-16T19:12:05.189Z,3.30
2023-04-16T19:14:34.510Z,2.40
2023-04-16T19:17:04.112Z,3.13
2023-04-16T19:19:36.943Z,2.40
2023-04-16T19:22:06.293Z,2.13
2023-04-16T19:24:35.742Z,2.90
2023-04-16T19:27:06.117Z,2.63
2023-04-16T19:29:35.224Z,2.37
2023-04-16T19:32:05.504Z,3.20
2023-04-16T19:34:36.380Z,3.77
2023-04-16T19:37:05.681Z,3.70
2023-04-16T19:39:34.703Z,3.50
2023-04-16T19:42:05.732Z,3.10
2023-04-16T19:44:36.024Z,2.90
2023-04-16T19:47:07.070Z,2.17
2023-04-16T19:49:37.985Z,2.90
2023-04-16T19:52:07.634Z,3.13
2023-04-16T19:54:37.720Z,2.83
2023-04-16T19:57:07.893Z,3.13
2023-04-16T19:59:39.027Z,3.63
2023-04-16T20:02:08.475Z,3.60
2023-04-16T20:04:39.275Z,2.30
2023-04-16T20:07:10.257Z,2.57
2023-04-16T20:09:39.598Z,4.27
2023-04-16T20:12:09.196Z,3.50
2023-04-16T20:14:39.600Z,2.00
2023-04-16T20:17:10.316Z,3.30
2023-04-16T20:19:42.586Z,3.20
2023-04-16T20:22:13.442Z,2.60
2023-04-16T20:24:48.196Z,4.30
2023-04-16T20:27:19.637Z,2.77
2023-04-16T20:29:49.987Z,4.20
2023-04-16T20:32:20.436Z,2.47
2023-04-16T20:34:52.278Z,2.27
2023-04-16T20:37:22.361Z,2.23
2023-04-16T20:39:54.447Z,3.73
2023-04-16T20:42:26.477Z,3.40
2023-04-16T20:45:01.855Z,3.17
2023-04-16T20:47:31.737Z,2.60
2023-04-16T20:50:03.993Z,2.20
2023-04-16T20:52:34.218Z,4.33
2023-04-16T20:55:03.888Z,2.40
2023-04-16T20:57:34.130Z,2.63
2023-04-16T21:00:05.843Z,3.53
2023-04-16T21:02:36.269Z,2.33
2023-04-16T21:05:09.368Z,3.10
2023-04-16T21:07:39.259Z,2.90
2023-04-16T21:10:09.440Z,2.73
2023-04-16T21:12:39.944Z,3.23
2023-04-16T21:15:09.954Z,2.57
2023-04-16T21:17:39.952Z,2.00
2023-04-16T21:20:13.823Z,2.30
2023-04-16T21:22:45.068Z,2.90
2023-04-16T21:25:16.092Z,3.00
2023-04-16T21:27:46.525Z,2.87
2023-04-16T21:30:16.191Z,2.37
2023-04-16T21:32:46.175Z,2.33
2023-04-16T21:35:17.190Z,3.10
2023-04-16T21:37:47.989Z,3.23
2023-04-16T21:40:17.541Z,2.90
2023-04-16T21:42:47.090Z,2.50
2023-04-16T21:45:17.207Z,3.10
2023-04-16T21:47:48.070Z,3.30
2023-04-16T21:50:19.852Z,2.67
2023-04-16T21:52:50.187Z,3.77
2023-04-16T21:55:19.896Z,3.30
2023-04-16T21:57:50.102Z,2.23
2023-04-16T22:00:21.292Z,2.83
2023-04-16T22:02:52.441Z,2.60
2023-04-16T22:05:24.256Z,2.53
2023-04-16T22:07:53.803Z,3.27
2023-04-16T22:10:25.162Z,3.13
2023-04-16T22:12:55.009Z,2.20
2023-04-16T22:15:24.507Z,2.23
2023-04-16T22:17:55.679Z,2.57
2023-04-16T22:20:26.742Z,2.70
2023-04-16T22:22:59.612Z,2.20
2023-04-16T22:25:29.090Z,2.70
2023-04-16T22:27:58.515Z,3.17
2023-04-16T22:30:29.574Z,2.87
2023-04-16T22:32:58.680Z,2.40
2023-04-16T22:35:29.669Z,2.50
2023-04-16T22:38:00.715Z,2.40
2023-04-16T22:40:29.790Z,3.03
2023-04-16T22:42:59.718Z,2.60
2023-04-16T22:45:29.383Z,2.30
2023-04-16T22:47:58.835Z,2.90
2023-04-16T22:50:31.554Z,1.60
2023-04-16T22:53:00.960Z,2.67
2023-04-16T22:55:30.217Z,2.40
2023-04-16T22:58:01.342Z,2.43
2023-04-16T23:00:30.413Z,3.10
2023-04-16T23:02:59.957Z,4.03
2023-04-16T23:05:31.011Z,2.80
2023-04-16T23:08:01.231Z,2.47
2023-04-16T23:10:30.612Z,2.90
2023-04-16T23:13:01.496Z,2.40
2023-04-16T23:15:30.927Z,2.60
2023-04-16T23:18:02.231Z,2.63
2023-04-16T23:20:34.929Z,2.67
2023-04-16T23:23:06.089Z,2.60
2023-04-16T23:25:36.126Z,3.00
2023-04-16T23:28:05.802Z,2.80
2023-04-16T23:30:35.883Z,3.13
2023-04-16T23:33:06.017Z,2.53
2023-04-16T23:35:40.097Z,2.80
2023-04-16T23:38:09.520Z,2.30
2023-04-16T23:40:39.256Z,2.03
